sensor_id;sensor_type;location;lat;lon;timestamp;temperature;humidity
25450;DHT22;13371;52.080;5.624;2022-12-07T00:01:39;7.30;96.60
25450;DHT22;13371;52.080;5.624;2022-12-07T00:04:07;7.40;96.70
25450;DHT22;13371;52.080;5.624;2022-12-07T00:06:35;7.30;96.50
25450;DHT22;13371;52.080;5.624;2022-12-07T00:09:01;7.30;96.60
25450;DHT22;13371;52.080;5.624;2022-12-07T00:11:26;7.10;96.60
25450;DHT22;13371;52.080;5.624;2022-12-07T00:13:54;7.20;96.60
25450;DHT22;13371;52.080;5.624;2022-12-07T00:16:22;7.00;96.40
25450;DHT22;13371;52.080;5.624;2022-12-07T00:18:48;6.90;96.90
25450;DHT22;13371;52.080;5.624;2022-12-07T00:23:44;6.50;98.40
25450;DHT22;13371;52.080;5.624;2022-12-07T00:26:15;6.70;97.40
25450;DHT22;13371;52.080;5.624;2022-12-07T00:28:48;6.90;97.30
25450;DHT22;13371;52.080;5.624;2022-12-07T00:31:15;6.90;97.20
25450;DHT22;13371;52.080;5.624;2022-12-07T00:33:41;6.80;97.20
25450;DHT22;13371;52.080;5.624;2022-12-07T00:36:09;6.80;97.10
25450;DHT22;13371;52.080;5.624;2022-12-07T00:38:36;6.90;97.10
25450;DHT22;13371;52.080;5.624;2022-12-07T00:41:09;6.90;97.00
25450;DHT22;13371;52.080;5.624;2022-12-07T00:43:35;6.90;97.00
25450;DHT22;13371;52.080;5.624;2022-12-07T00:46:00;6.90;96.80
25450;DHT22;13371;52.080;5.624;2022-12-07T00:48:26;6.80;96.80
25450;DHT22;13371;52.080;5.624;2022-12-07T00:50:52;6.80;96.80
25450;DHT22;13371;52.080;5.624;2022-12-07T00:53:19;6.80;96.80
25450;DHT22;13371;52.080;5.624;2022-12-07T00:55:45;6.80;96.70
25450;DHT22;13371;52.080;5.624;2022-12-07T00:58:11;6.70;96.50
25450;DHT22;13371;52.080;5.624;2022-12-07T01:00:38;6.50;96.70
25450;DHT22;13371;52.080;5.624;2022-12-07T01:03:05;6.40;96.70
25450;DHT22;13371;52.080;5.624;2022-12-07T01:05:31;6.50;96.80
25450;DHT22;13371;52.080;5.624;2022-12-07T01:07:56;6.60;96.50
25450;DHT22;13371;52.080;5.624;2022-12-07T01:10:22;6.40;96.50
25450;DHT22;13371;52.080;5.624;2022-12-07T01:12:48;6.50;96.70
25450;DHT22;13371;52.080;5.624;2022-12-07T01:15:13;6.50;96.60
25450;DHT22;13371;52.080;5.624;2022-12-07T01:17:39;6.40;96.60
25450;DHT22;13371;52.080;5.624;2022-12-07T01:20:05;6.50;96.70
25450;DHT22;13371;52.080;5.624;2022-12-07T01:22:31;6.50;96.50
25450;DHT22;13371;52.080;5.624;2022-12-07T01:24:56;6.40;96.40
25450;DHT22;13371;52.080;5.624;2022-12-07T01:27:22;6.40;96.30
25450;DHT22;13371;52.080;5.624;2022-12-07T01:29:47;6.40;96.30
25450;DHT22;13371;52.080;5.624;2022-12-07T01:32:13;6.50;96.30
25450;DHT22;13371;52.080;5.624;2022-12-07T01:34:39;6.40;96.10
25450;DHT22;13371;52.080;5.624;2022-12-07T01:37:04;6.40;96.10
25450;DHT22;13371;52.080;5.624;2022-12-07T01:39:30;6.20;96.20
25450;DHT22;13371;52.080;5.624;2022-12-07T01:41:55;6.20;96.40
25450;DHT22;13371;52.080;5.624;2022-12-07T01:44:24;6.20;96.40
25450;DHT22;13371;52.080;5.624;2022-12-07T01:46:56;6.20;96.30
25450;DHT22;13371;52.080;5.624;2022-12-07T01:49:49;6.20;96.40
25450;DHT22;13371;52.080;5.624;2022-12-07T01:54:52;6.10;96.40
25450;DHT22;13371;52.080;5.624;2022-12-07T01:57:19;6.20;96.50
25450;DHT22;13371;52.080;5.624;2022-12-07T01:59:45;6.10;96.40
25450;DHT22;13371;52.080;5.624;2022-12-07T02:02:20;6.10;96.50
25450;DHT22;13371;52.080;5.624;2022-12-07T02:04:48;6.10;96.60
25450;DHT22;13371;52.080;5.624;2022-12-07T02:07:14;6.10;96.60
25450;DHT22;13371;52.080;5.624;2022-12-07T02:09:40;6.10;96.20
25450;DHT22;13371;52.080;5.624;2022-12-07T02:12:06;6.10;96.30
25450;DHT22;13371;52.080;5.624;2022-12-07T02:14:32;6.20;96.20
25450;DHT22;13371;52.080;5.624;2022-12-07T02:20:08;6.00;96.10
25450;DHT22;13371;52.080;5.624;2022-12-07T02:28:33;5.90;96.20
25450;DHT22;13371;52.080;5.624;2022-12-07T02:31:06;5.90;96.20
25450;DHT22;13371;52.080;5.624;2022-12-07T02:33:50;5.80;96.30
25450;DHT22;13371;52.080;5.624;2022-12-07T02:36:28;5.90;96.30
25450;DHT22;13371;52.080;5.624;2022-12-07T02:39:01;5.80;96.20
25450;DHT22;13371;52.080;5.624;2022-12-07T02:44:04;5.90;96.30
25450;DHT22;13371;52.080;5.624;2022-12-07T02:46:36;5.80;96.30
25450;DHT22;13371;52.080;5.624;2022-12-07T02:49:33;5.80;96.30
25450;DHT22;13371;52.080;5.624;2022-12-07T02:52:00;5.80;96.30
25450;DHT22;13371;52.080;5.624;2022-12-07T02:54:26;5.70;96.70
25450;DHT22;13371;52.080;5.624;2022-12-07T03:00:05;5.60;96.80
25450;DHT22;13371;52.080;5.624;2022-12-07T03:11:12;5.80;97.10
25450;DHT22;13371;52.080;5.624;2022-12-07T03:16:20;5.30;98.10
25450;DHT22;13371;52.080;5.624;2022-12-07T03:19:08;5.60;97.90
25450;DHT22;13371;52.080;5.624;2022-12-07T03:21:46;5.70;97.50
25450;DHT22;13371;52.080;5.624;2022-12-07T03:24:17;4.90;98.40
25450;DHT22;13371;52.080;5.624;2022-12-07T03:26:47;5.20;98.70
25450;DHT22;13371;52.080;5.624;2022-12-07T03:29:25;5.40;98.60
25450;DHT22;13371;52.080;5.624;2022-12-07T03:32:04;5.60;98.10
25450;DHT22;13371;52.080;5.624;2022-12-07T03:34:34;5.80;97.60
25450;DHT22;13371;52.080;5.624;2022-12-07T03:37:11;5.70;97.50
25450;DHT22;13371;52.080;5.624;2022-12-07T03:39:46;5.90;97.50
25450;DHT22;13371;52.080;5.624;2022-12-07T03:42:15;5.90;97.50
25450;DHT22;13371;52.080;5.624;2022-12-07T03:44:41;5.80;97.30
25450;DHT22;13371;52.080;5.624;2022-12-07T03:47:31;6.00;97.40
25450;DHT22;13371;52.080;5.624;2022-12-07T03:50:03;6.00;97.30
25450;DHT22;13371;52.080;5.624;2022-12-07T03:52:41;5.80;97.40
25450;DHT22;13371;52.080;5.624;2022-12-07T03:55:20;6.10;97.10
25450;DHT22;13371;52.080;5.624;2022-12-07T03:57:50;6.00;97.20
25450;DHT22;13371;52.080;5.624;2022-12-07T04:00:18;6.00;97.20
25450;DHT22;13371;52.080;5.624;2022-12-07T04:02:44;6.00;97.20
25450;DHT22;13371;52.080;5.624;2022-12-07T04:05:10;5.90;97.30
25450;DHT22;13371;52.080;5.624;2022-12-07T04:07:36;6.10;97.20
25450;DHT22;13371;52.080;5.624;2022-12-07T04:10:02;6.10;96.90
25450;DHT22;13371;52.080;5.624;2022-12-07T04:12:28;6.00;97.00
25450;DHT22;13371;52.080;5.624;2022-12-07T04:14:53;5.80;97.20
25450;DHT22;13371;52.080;5.624;2022-12-07T04:17:19;5.70;97.40
25450;DHT22;13371;52.080;5.624;2022-12-07T04:19:44;5.90;97.90
25450;DHT22;13371;52.080;5.624;2022-12-07T04:22:10;5.90;97.30
25450;DHT22;13371;52.080;5.624;2022-12-07T04:24:35;6.00;97.30
25450;DHT22;13371;52.080;5.624;2022-12-07T04:27:02;5.80;96.90
25450;DHT22;13371;52.080;5.624;2022-12-07T04:29:28;5.50;97.80
25450;DHT22;13371;52.080;5.624;2022-12-07T04:31:53;5.60;98.00
25450;DHT22;13371;52.080;5.624;2022-12-07T04:34:19;5.90;97.70
25450;DHT22;13371;52.080;5.624;2022-12-07T04:36:46;5.90;97.50
25450;DHT22;13371;52.080;5.624;2022-12-07T04:39:29;5.80;97.50
25450;DHT22;13371;52.080;5.624;2022-12-07T04:41:56;5.80;97.70
25450;DHT22;13371;52.080;5.624;2022-12-07T04:44:23;5.90;97.80
25450;DHT22;13371;52.080;5.624;2022-12-07T04:46:50;6.00;97.60
25450;DHT22;13371;52.080;5.624;2022-12-07T04:49:16;5.60;98.00
25450;DHT22;13371;52.080;5.624;2022-12-07T04:51:42;5.90;97.90
25450;DHT22;13371;52.080;5.624;2022-12-07T04:54:08;6.00;97.60
25450;DHT22;13371;52.080;5.624;2022-12-07T04:56:34;5.60;97.60
25450;DHT22;13371;52.080;5.624;2022-12-07T04:59:01;5.70;98.00
25450;DHT22;13371;52.080;5.624;2022-12-07T05:01:27;5.90;97.90
25450;DHT22;13371;52.080;5.624;2022-12-07T05:03:52;5.90;97.70
25450;DHT22;13371;52.080;5.624;2022-12-07T05:06:18;6.00;97.60
25450;DHT22;13371;52.080;5.624;2022-12-07T05:08:44;5.90;97.70
25450;DHT22;13371;52.080;5.624;2022-12-07T05:11:11;6.00;97.70
25450;DHT22;13371;52.080;5.624;2022-12-07T05:13:59;5.90;97.20
25450;DHT22;13371;52.080;5.624;2022-12-07T05:16:26;5.70;98.10
25450;DHT22;13371;52.080;5.624;2022-12-07T05:18:51;6.00;97.90
25450;DHT22;13371;52.080;5.624;2022-12-07T05:21:17;6.00;97.40
25450;DHT22;13371;52.080;5.624;2022-12-07T05:23:43;5.60;97.90
25450;DHT22;13371;52.080;5.624;2022-12-07T05:26:08;5.70;98.00
25450;DHT22;13371;52.080;5.624;2022-12-07T05:28:34;6.00;97.80
25450;DHT22;13371;52.080;5.624;2022-12-07T05:30:59;5.90;97.40
25450;DHT22;13371;52.080;5.624;2022-12-07T05:33:25;5.90;97.50
25450;DHT22;13371;52.080;5.624;2022-12-07T05:35:50;6.00;97.80
25450;DHT22;13371;52.080;5.624;2022-12-07T05:38:16;6.00;97.20
25450;DHT22;13371;52.080;5.624;2022-12-07T05:40:41;6.20;96.80
25450;DHT22;13371;52.080;5.624;2022-12-07T05:43:07;6.00;96.80
25450;DHT22;13371;52.080;5.624;2022-12-07T05:45:33;6.00;97.30
25450;DHT22;13371;52.080;5.624;2022-12-07T05:47:58;5.80;97.00
25450;DHT22;13371;52.080;5.624;2022-12-07T05:50:24;5.80;97.10
25450;DHT22;13371;52.080;5.624;2022-12-07T05:52:50;5.80;96.90
25450;DHT22;13371;52.080;5.624;2022-12-07T05:55:15;5.40;97.20
25450;DHT22;13371;52.080;5.624;2022-12-07T05:57:41;5.60;97.30
25450;DHT22;13371;52.080;5.624;2022-12-07T06:00:26;5.60;97.20
25450;DHT22;13371;52.080;5.624;2022-12-07T06:02:52;5.80;96.70
25450;DHT22;13371;52.080;5.624;2022-12-07T06:05:17;5.70;96.70
25450;DHT22;13371;52.080;5.624;2022-12-07T06:07:43;5.70;96.80
25450;DHT22;13371;52.080;5.624;2022-12-07T06:10:09;5.70;96.70
25450;DHT22;13371;52.080;5.624;2022-12-07T06:12:34;5.70;96.70
25450;DHT22;13371;52.080;5.624;2022-12-07T06:15:00;5.60;96.70
25450;DHT22;13371;52.080;5.624;2022-12-07T06:17:26;5.50;96.60
25450;DHT22;13371;52.080;5.624;2022-12-07T06:19:52;5.40;97.10
25450;DHT22;13371;52.080;5.624;2022-12-07T06:22:18;5.50;97.00
25450;DHT22;13371;52.080;5.624;2022-12-07T06:24:43;5.60;97.00
25450;DHT22;13371;52.080;5.624;2022-12-07T06:27:09;5.40;96.90
25450;DHT22;13371;52.080;5.624;2022-12-07T06:29:35;5.50;97.10
25450;DHT22;13371;52.080;5.624;2022-12-07T06:32:02;5.60;97.10
25450;DHT22;13371;52.080;5.624;2022-12-07T06:34:28;5.30;97.30
25450;DHT22;13371;52.080;5.624;2022-12-07T06:36:53;5.30;97.60
25450;DHT22;13371;52.080;5.624;2022-12-07T06:39:25;5.60;97.30
25450;DHT22;13371;52.080;5.624;2022-12-07T06:41:51;5.60;97.00
25450;DHT22;13371;52.080;5.624;2022-12-07T06:44:17;5.50;97.50
25450;DHT22;13371;52.080;5.624;2022-12-07T06:46:43;5.40;97.60
25450;DHT22;13371;52.080;5.624;2022-12-07T06:49:09;5.50;97.20
25450;DHT22;13371;52.080;5.624;2022-12-07T06:51:34;5.60;97.20
25450;DHT22;13371;52.080;5.624;2022-12-07T06:54:02;5.60;97.20
25450;DHT22;13371;52.080;5.624;2022-12-07T06:56:29;5.60;97.10
25450;DHT22;13371;52.080;5.624;2022-12-07T06:58:54;5.80;96.90
25450;DHT22;13371;52.080;5.624;2022-12-07T07:01:20;5.60;96.60
25450;DHT22;13371;52.080;5.624;2022-12-07T07:03:46;5.60;97.00
25450;DHT22;13371;52.080;5.624;2022-12-07T07:06:13;5.70;96.60
25450;DHT22;13371;52.080;5.624;2022-12-07T07:08:39;5.60;96.80
25450;DHT22;13371;52.080;5.624;2022-12-07T07:11:05;5.70;96.60
25450;DHT22;13371;52.080;5.624;2022-12-07T07:13:31;5.70;96.70
25450;DHT22;13371;52.080;5.624;2022-12-07T07:15:57;5.30;96.60
25450;DHT22;13371;52.080;5.624;2022-12-07T07:18:23;5.40;97.10
25450;DHT22;13371;52.080;5.624;2022-12-07T07:20:50;5.60;96.80
25450;DHT22;13371;52.080;5.624;2022-12-07T07:23:16;5.40;96.80
25450;DHT22;13371;52.080;5.624;2022-12-07T07:25:42;5.40;96.90
25450;DHT22;13371;52.080;5.624;2022-12-07T07:28:07;5.10;96.90
25450;DHT22;13371;52.080;5.624;2022-12-07T07:30:33;5.20;97.20
25450;DHT22;13371;52.080;5.624;2022-12-07T07:33:00;5.00;97.30
25450;DHT22;13371;52.080;5.624;2022-12-07T07:35:27;5.10;97.60
25450;DHT22;13371;52.080;5.624;2022-12-07T07:37:52;5.10;97.60
25450;DHT22;13371;52.080;5.624;2022-12-07T07:40:18;5.00;97.40
25450;DHT22;13371;52.080;5.624;2022-12-07T07:42:47;4.70;97.60
25450;DHT22;13371;52.080;5.624;2022-12-07T07:45:13;4.90;98.00
25450;DHT22;13371;52.080;5.624;2022-12-07T07:47:38;5.00;97.60
25450;DHT22;13371;52.080;5.624;2022-12-07T07:50:04;5.10;97.60
25450;DHT22;13371;52.080;5.624;2022-12-07T07:52:31;5.30;97.20
25450;DHT22;13371;52.080;5.624;2022-12-07T07:54:56;5.10;96.80
25450;DHT22;13371;52.080;5.624;2022-12-07T07:57:22;4.80;97.30
25450;DHT22;13371;52.080;5.624;2022-12-07T07:59:47;4.80;97.70
25450;DHT22;13371;52.080;5.624;2022-12-07T08:02:18;4.80;98.10
25450;DHT22;13371;52.080;5.624;2022-12-07T08:04:44;4.90;97.80
25450;DHT22;13371;52.080;5.624;2022-12-07T08:07:10;5.20;97.60
25450;DHT22;13371;52.080;5.624;2022-12-07T08:09:36;5.30;97.50
25450;DHT22;13371;52.080;5.624;2022-12-07T08:12:01;5.40;97.20
25450;DHT22;13371;52.080;5.624;2022-12-07T08:14:27;5.10;97.70
25450;DHT22;13371;52.080;5.624;2022-12-07T08:16:54;5.50;97.30
25450;DHT22;13371;52.080;5.624;2022-12-07T08:19:19;5.50;96.90
25450;DHT22;13371;52.080;5.624;2022-12-07T08:21:45;5.40;97.10
25450;DHT22;13371;52.080;5.624;2022-12-07T08:24:10;5.30;97.30
25450;DHT22;13371;52.080;5.624;2022-12-07T08:26:36;5.40;97.50
25450;DHT22;13371;52.080;5.624;2022-12-07T08:29:02;5.40;97.50
25450;DHT22;13371;52.080;5.624;2022-12-07T08:31:27;5.50;97.40
25450;DHT22;13371;52.080;5.624;2022-12-07T08:33:54;5.50;97.50
25450;DHT22;13371;52.080;5.624;2022-12-07T08:36:20;5.40;97.90
25450;DHT22;13371;52.080;5.624;2022-12-07T08:38:47;5.30;98.50
25450;DHT22;13371;52.080;5.624;2022-12-07T08:41:12;5.60;98.50
25450;DHT22;13371;52.080;5.624;2022-12-07T08:43:38;6.20;99.90
25450;DHT22;13371;52.080;5.624;2022-12-07T08:46:18;6.60;99.80
25450;DHT22;13371;52.080;5.624;2022-12-07T08:48:51;7.30;99.80
25450;DHT22;13371;52.080;5.624;2022-12-07T08:51:18;7.70;98.60
25450;DHT22;13371;52.080;5.624;2022-12-07T08:53:44;8.00;97.50
25450;DHT22;13371;52.080;5.624;2022-12-07T08:56:10;8.10;96.50
25450;DHT22;13371;52.080;5.624;2022-12-07T08:58:37;8.00;96.00
25450;DHT22;13371;52.080;5.624;2022-12-07T09:01:04;8.00;96.20
25450;DHT22;13371;52.080;5.624;2022-12-07T09:03:30;8.50;97.60
25450;DHT22;13371;52.080;5.624;2022-12-07T09:05:55;9.80;98.30
25450;DHT22;13371;52.080;5.624;2022-12-07T09:08:22;11.00;98.10
25450;DHT22;13371;52.080;5.624;2022-12-07T09:10:50;11.80;96.50
25450;DHT22;13371;52.080;5.624;2022-12-07T09:13:16;11.70;93.00
25450;DHT22;13371;52.080;5.624;2022-12-07T09:15:41;11.70;92.90
25450;DHT22;13371;52.080;5.624;2022-12-07T09:18:07;11.50;92.20
25450;DHT22;13371;52.080;5.624;2022-12-07T09:20:32;11.40;92.60
25450;DHT22;13371;52.080;5.624;2022-12-07T09:22:59;11.50;93.50
25450;DHT22;13371;52.080;5.624;2022-12-07T09:25:24;11.80;93.70
25450;DHT22;13371;52.080;5.624;2022-12-07T09:27:57;12.40;95.00
25450;DHT22;13371;52.080;5.624;2022-12-07T09:30:23;13.40;94.30
25450;DHT22;13371;52.080;5.624;2022-12-07T09:32:49;14.30;92.40
25450;DHT22;13371;52.080;5.624;2022-12-07T09:35:15;15.00;90.70
25450;DHT22;13371;52.080;5.624;2022-12-07T09:37:40;15.40;86.50
25450;DHT22;13371;52.080;5.624;2022-12-07T09:40:06;15.90;83.40
25450;DHT22;13371;52.080;5.624;2022-12-07T09:42:37;16.40;79.40
25450;DHT22;13371;52.080;5.624;2022-12-07T09:45:07;16.30;77.10
25450;DHT22;13371;52.080;5.624;2022-12-07T09:47:37;16.30;79.30
25450;DHT22;13371;52.080;5.624;2022-12-07T09:50:07;16.50;77.50
25450;DHT22;13371;52.080;5.624;2022-12-07T09:52:37;16.80;76.50
25450;DHT22;13371;52.080;5.624;2022-12-07T09:55:03;16.90;75.60
25450;DHT22;13371;52.080;5.624;2022-12-07T09:57:31;16.50;74.30
25450;DHT22;13371;52.080;5.624;2022-12-07T10:00:01;15.70;75.00
25450;DHT22;13371;52.080;5.624;2022-12-07T10:02:41;14.90;77.10
25450;DHT22;13371;52.080;5.624;2022-12-07T10:05:13;14.20;78.30
25450;DHT22;13371;52.080;5.624;2022-12-07T10:07:39;13.30;80.80
25450;DHT22;13371;52.080;5.624;2022-12-07T10:10:19;12.90;83.30
25450;DHT22;13371;52.080;5.624;2022-12-07T10:12:59;12.40;87.30
25450;DHT22;13371;52.080;5.624;2022-12-07T10:15:46;12.20;91.70
25450;DHT22;13371;52.080;5.624;2022-12-07T10:18:26;11.80;90.50
25450;DHT22;13371;52.080;5.624;2022-12-07T10:21:12;11.70;91.30
25450;DHT22;13371;52.080;5.624;2022-12-07T10:26:30;11.20;91.40
25450;DHT22;13371;52.080;5.624;2022-12-07T10:28:59;10.60;92.60
25450;DHT22;13371;52.080;5.624;2022-12-07T10:31:26;10.30;93.40
25450;DHT22;13371;52.080;5.624;2022-12-07T10:33:59;10.30;93.50
25450;DHT22;13371;52.080;5.624;2022-12-07T10:36:38;10.40;93.90
25450;DHT22;13371;52.080;5.624;2022-12-07T10:39:15;10.50;93.90
25450;DHT22;13371;52.080;5.624;2022-12-07T10:42:00;10.60;94.10
25450;DHT22;13371;52.080;5.624;2022-12-07T10:44:28;10.90;94.80
25450;DHT22;13371;52.080;5.624;2022-12-07T10:47:17;10.60;94.40
25450;DHT22;13371;52.080;5.624;2022-12-07T10:55:22;11.20;92.40
25450;DHT22;13371;52.080;5.624;2022-12-07T11:01:24;11.30;93.20
25450;DHT22;13371;52.080;5.624;2022-12-07T11:06:59;12.20;92.50
25450;DHT22;13371;52.080;5.624;2022-12-07T11:20:35;12.00;91.00
25450;DHT22;13371;52.080;5.624;2022-12-07T11:23:21;11.50;92.30
25450;DHT22;13371;52.080;5.624;2022-12-07T11:26:04;11.60;93.50
25450;DHT22;13371;52.080;5.624;2022-12-07T11:34:08;11.50;93.80
25450;DHT22;13371;52.080;5.624;2022-12-07T11:36:41;11.40;93.10
25450;DHT22;13371;52.080;5.624;2022-12-07T11:39:35;11.30;93.60
25450;DHT22;13371;52.080;5.624;2022-12-07T11:42:19;11.50;93.60
25450;DHT22;13371;52.080;5.624;2022-12-07T11:44:57;11.30;93.40
25450;DHT22;13371;52.080;5.624;2022-12-07T11:50:31;10.80;93.50
25450;DHT22;13371;52.080;5.624;2022-12-07T11:53:10;10.90;93.50
25450;DHT22;13371;52.080;5.624;2022-12-07T11:55:56;10.70;93.50
25450;DHT22;13371;52.080;5.624;2022-12-07T12:03:44;10.60;94.20
25450;DHT22;13371;52.080;5.624;2022-12-07T12:06:10;10.50;94.20
25450;DHT22;13371;52.080;5.624;2022-12-07T12:08:49;10.40;94.60
25450;DHT22;13371;52.080;5.624;2022-12-07T12:11:24;10.40;94.70
25450;DHT22;13371;52.080;5.624;2022-12-07T12:21:49;9.90;95.50
25450;DHT22;13371;52.080;5.624;2022-12-07T12:24:24;10.10;95.30
25450;DHT22;13371;52.080;5.624;2022-12-07T12:27:05;10.30;95.20
25450;DHT22;13371;52.080;5.624;2022-12-07T12:29:38;10.20;95.10
25450;DHT22;13371;52.080;5.624;2022-12-07T12:32:18;9.90;95.00
25450;DHT22;13371;52.080;5.624;2022-12-07T12:37:43;9.70;95.00
25450;DHT22;13371;52.080;5.624;2022-12-07T12:42:53;9.80;95.40
25450;DHT22;13371;52.080;5.624;2022-12-07T12:45:29;9.60;95.60
25450;DHT22;13371;52.080;5.624;2022-12-07T12:48:01;9.70;95.50
25450;DHT22;13371;52.080;5.624;2022-12-07T12:50:36;9.50;96.00
25450;DHT22;13371;52.080;5.624;2022-12-07T12:53:05;9.90;95.60
25450;DHT22;13371;52.080;5.624;2022-12-07T12:55:53;10.00;95.40
25450;DHT22;13371;52.080;5.624;2022-12-07T12:58:34;10.20;95.40
25450;DHT22;13371;52.080;5.624;2022-12-07T13:04:16;10.90;94.50
25450;DHT22;13371;52.080;5.624;2022-12-07T13:06:43;10.70;94.10
25450;DHT22;13371;52.080;5.624;2022-12-07T13:09:36;10.60;93.80
25450;DHT22;13371;52.080;5.624;2022-12-07T13:12:14;10.50;93.70
25450;DHT22;13371;52.080;5.624;2022-12-07T13:14:54;10.60;94.50
25450;DHT22;13371;52.080;5.624;2022-12-07T13:20:02;10.60;94.30
25450;DHT22;13371;52.080;5.624;2022-12-07T13:27:57;10.10;94.70
25450;DHT22;13371;52.080;5.624;2022-12-07T13:30:23;9.80;95.50
25450;DHT22;13371;52.080;5.624;2022-12-07T13:32:55;9.60;95.60
25450;DHT22;13371;52.080;5.624;2022-12-07T13:35:35;9.70;96.10
25450;DHT22;13371;52.080;5.624;2022-12-07T13:38:05;9.90;95.90
25450;DHT22;13371;52.080;5.624;2022-12-07T13:40:31;9.80;95.80
25450;DHT22;13371;52.080;5.624;2022-12-07T13:43:02;9.80;96.00
25450;DHT22;13371;52.080;5.624;2022-12-07T13:45:32;9.80;95.80
25450;DHT22;13371;52.080;5.624;2022-12-07T13:48:42;9.80;95.40
25450;DHT22;13371;52.080;5.624;2022-12-07T13:51:20;9.80;95.40
25450;DHT22;13371;52.080;5.624;2022-12-07T13:53:48;9.80;95.40
25450;DHT22;13371;52.080;5.624;2022-12-07T13:56:14;9.90;95.40
25450;DHT22;13371;52.080;5.624;2022-12-07T13:58:41;9.80;95.00
25450;DHT22;13371;52.080;5.624;2022-12-07T14:01:07;9.70;94.90
25450;DHT22;13371;52.080;5.624;2022-12-07T14:03:34;9.80;95.40
25450;DHT22;13371;52.080;5.624;2022-12-07T14:08:42;10.00;94.70
25450;DHT22;13371;52.080;5.624;2022-12-07T14:11:17;9.90;94.20
25450;DHT22;13371;52.080;5.624;2022-12-07T14:14:05;10.10;93.70
25450;DHT22;13371;52.080;5.624;2022-12-07T14:16:36;10.20;93.30
25450;DHT22;13371;52.080;5.624;2022-12-07T14:19:04;10.00;93.50
25450;DHT22;13371;52.080;5.624;2022-12-07T14:21:33;9.90;93.20
25450;DHT22;13371;52.080;5.624;2022-12-07T14:26:36;9.90;93.30
25450;DHT22;13371;52.080;5.624;2022-12-07T14:31:50;9.90;93.80
25450;DHT22;13371;52.080;5.624;2022-12-07T14:34:16;9.80;93.80
25450;DHT22;13371;52.080;5.624;2022-12-07T14:36:42;9.80;94.10
25450;DHT22;13371;52.080;5.624;2022-12-07T14:39:07;9.80;94.20
25450;DHT22;13371;52.080;5.624;2022-12-07T14:41:33;9.80;94.20
25450;DHT22;13371;52.080;5.624;2022-12-07T14:44:18;9.90;93.90
25450;DHT22;13371;52.080;5.624;2022-12-07T14:46:45;9.90;93.90
25450;DHT22;13371;52.080;5.624;2022-12-07T14:49:10;9.90;93.90
25450;DHT22;13371;52.080;5.624;2022-12-07T14:51:38;9.80;93.90
25450;DHT22;13371;52.080;5.624;2022-12-07T14:54:05;9.90;93.80
25450;DHT22;13371;52.080;5.624;2022-12-07T14:56:31;10.00;93.80
25450;DHT22;13371;52.080;5.624;2022-12-07T14:58:57;9.90;93.50
25450;DHT22;13371;52.080;5.624;2022-12-07T15:01:22;9.80;93.70
25450;DHT22;13371;52.080;5.624;2022-12-07T15:03:51;10.00;93.50
25450;DHT22;13371;52.080;5.624;2022-12-07T15:06:18;10.00;93.40
25450;DHT22;13371;52.080;5.624;2022-12-07T15:08:44;10.00;93.50
25450;DHT22;13371;52.080;5.624;2022-12-07T15:11:13;10.00;93.40
25450;DHT22;13371;52.080;5.624;2022-12-07T15:13:38;10.10;93.40
25450;DHT22;13371;52.080;5.624;2022-12-07T15:16:22;10.00;93.50
25450;DHT22;13371;52.080;5.624;2022-12-07T15:18:48;10.00;93.50
25450;DHT22;13371;52.080;5.624;2022-12-07T15:21:14;10.00;93.50
25450;DHT22;13371;52.080;5.624;2022-12-07T15:23:40;10.00;93.60
25450;DHT22;13371;52.080;5.624;2022-12-07T15:26:05;9.70;94.10
25450;DHT22;13371;52.080;5.624;2022-12-07T15:28:31;9.80;94.00
25450;DHT22;13371;52.080;5.624;2022-12-07T15:30:56;9.90;93.90
25450;DHT22;13371;52.080;5.624;2022-12-07T15:33:22;9.90;93.80
25450;DHT22;13371;52.080;5.624;2022-12-07T15:35:47;9.80;93.90
25450;DHT22;13371;52.080;5.624;2022-12-07T15:38:13;9.90;94.10
25450;DHT22;13371;52.080;5.624;2022-12-07T15:40:39;9.90;93.90
25450;DHT22;13371;52.080;5.624;2022-12-07T15:43:04;9.90;93.90
25450;DHT22;13371;52.080;5.624;2022-12-07T15:45:30;9.70;94.20
25450;DHT22;13371;52.080;5.624;2022-12-07T15:47:56;9.40;95.00
25450;DHT22;13371;52.080;5.624;2022-12-07T15:50:22;8.80;95.30
25450;DHT22;13371;52.080;5.624;2022-12-07T15:52:48;8.60;96.50
25450;DHT22;13371;52.080;5.624;2022-12-07T15:55:14;8.50;96.50
25450;DHT22;13371;52.080;5.624;2022-12-07T15:57:40;8.60;96.50
25450;DHT22;13371;52.080;5.624;2022-12-07T16:00:08;8.70;96.30
25450;DHT22;13371;52.080;5.624;2022-12-07T16:02:34;8.90;96.10
25450;DHT22;13371;52.080;5.624;2022-12-07T16:05:01;8.90;95.90
25450;DHT22;13371;52.080;5.624;2022-12-07T16:07:27;8.90;95.90
25450;DHT22;13371;52.080;5.624;2022-12-07T16:09:52;8.90;95.80
25450;DHT22;13371;52.080;5.624;2022-12-07T16:12:18;9.00;96.10
25450;DHT22;13371;52.080;5.624;2022-12-07T16:14:44;9.10;95.90
25450;DHT22;13371;52.080;5.624;2022-12-07T16:17:10;9.20;95.50
25450;DHT22;13371;52.080;5.624;2022-12-07T16:19:36;8.90;95.70
25450;DHT22;13371;52.080;5.624;2022-12-07T16:22:03;9.00;95.80
25450;DHT22;13371;52.080;5.624;2022-12-07T16:24:29;9.00;95.70
25450;DHT22;13371;52.080;5.624;2022-12-07T16:26:55;8.90;95.60
25450;DHT22;13371;52.080;5.624;2022-12-07T16:29:21;8.90;95.60
25450;DHT22;13371;52.080;5.624;2022-12-07T16:31:48;9.00;95.60
25450;DHT22;13371;52.080;5.624;2022-12-07T16:34:14;9.00;95.50
25450;DHT22;13371;52.080;5.624;2022-12-07T16:36:40;9.20;95.30
25450;DHT22;13371;52.080;5.624;2022-12-07T16:39:05;9.00;95.70
25450;DHT22;13371;52.080;5.624;2022-12-07T16:41:31;9.10;95.50
25450;DHT22;13371;52.080;5.624;2022-12-07T16:43:57;9.20;95.30
25450;DHT22;13371;52.080;5.624;2022-12-07T16:46:27;9.20;95.20
25450;DHT22;13371;52.080;5.624;2022-12-07T16:48:52;9.10;95.30
25450;DHT22;13371;52.080;5.624;2022-12-07T16:51:18;9.20;95.10
25450;DHT22;13371;52.080;5.624;2022-12-07T16:53:43;9.30;95.20
25450;DHT22;13371;52.080;5.624;2022-12-07T16:56:14;9.20;95.00
25450;DHT22;13371;52.080;5.624;2022-12-07T16:58:41;9.10;95.00
25450;DHT22;13371;52.080;5.624;2022-12-07T17:01:15;9.20;94.90
25450;DHT22;13371;52.080;5.624;2022-12-07T17:03:42;9.00;95.10
25450;DHT22;13371;52.080;5.624;2022-12-07T17:06:22;8.90;95.20
25450;DHT22;13371;52.080;5.624;2022-12-07T17:08:49;8.90;95.20
25450;DHT22;13371;52.080;5.624;2022-12-07T17:11:23;9.00;95.70
25450;DHT22;13371;52.080;5.624;2022-12-07T17:13:48;8.70;95.50
25450;DHT22;13371;52.080;5.624;2022-12-07T17:16:33;8.80;95.40
25450;DHT22;13371;52.080;5.624;2022-12-07T17:19:03;8.80;95.30
25450;DHT22;13371;52.080;5.624;2022-12-07T17:21:29;8.80;95.30
25450;DHT22;13371;52.080;5.624;2022-12-07T17:23:58;8.80;95.50
25450;DHT22;13371;52.080;5.624;2022-12-07T17:26:25;8.90;95.40
25450;DHT22;13371;52.080;5.624;2022-12-07T17:28:51;8.80;95.40
25450;DHT22;13371;52.080;5.624;2022-12-07T17:31:18;8.80;95.40
25450;DHT22;13371;52.080;5.624;2022-12-07T17:33:45;8.80;95.30
25450;DHT22;13371;52.080;5.624;2022-12-07T17:36:25;8.80;95.20
25450;DHT22;13371;52.080;5.624;2022-12-07T17:38:51;8.80;95.20